sensor_id;sensor_type;location;lat;lon;timestamp;P1;durP1;ratioP1;P2;durP2;ratioP2
47922;SDS011;33688;44.354;9.228;2023-02-01T00:02:09;6.05;;;4.28;;
47922;SDS011;33688;44.354;9.228;2023-02-01T00:04:35;6.65;;;4.60;;
47922;SDS011;33688;44.354;9.228;2023-02-01T00:07:00;8.43;;;4.35;;
47922;SDS011;33688;44.354;9.228;2023-02-01T00:09:27;5.60;;;3.38;;
47922;SDS011;33688;44.354;9.228;2023-02-01T00:11:52;6.07;;;3.88;;
47922;SDS011;33688;44.354;9.228;2023-02-01T00:14:18;8.00;;;4.72;;
47922;SDS011;33688;44.354;9.228;2023-02-01T00:16:44;6.85;;;4.57;;
47922;SDS011;33688;44.354;9.228;2023-02-01T00:19:11;5.85;;;4.03;;
47922;SDS011;33688;44.354;9.228;2023-02-01T00:21:38;6.20;;;4.50;;
47922;SDS011;33688;44.354;9.228;2023-02-01T00:24:04;8.18;;;4.47;;
47922;SDS011;33688;44.354;9.228;2023-02-01T00:26:34;6.93;;;3.97;;
47922;SDS011;33688;44.354;9.228;2023-02-01T00:29:01;6.60;;;4.72;;
47922;SDS011;33688;44.354;9.228;2023-02-01T00:31:28;7.78;;;4.60;;
47922;SDS011;33688;44.354;9.228;2023-02-01T00:33:54;5.50;;;4.32;;
47922;SDS011;33688;44.354;9.228;2023-02-01T00:36:21;5.22;;;3.47;;
47922;SDS011;33688;44.354;9.228;2023-02-01T00:38:47;6.10;;;4.07;;
47922;SDS011;33688;44.354;9.228;2023-02-01T00:41:14;5.13;;;3.75;;
47922;SDS011;33688;44.354;9.228;2023-02-01T00:43:45;5.33;;;4.00;;
47922;SDS011;33688;44.354;9.228;2023-02-01T00:46:12;6.85;;;4.63;;
47922;SDS011;33688;44.354;9.228;2023-02-01T00:48:38;5.78;;;4.00;;
47922;SDS011;33688;44.354;9.228;2023-02-01T00:51:05;5.50;;;3.75;;
47922;SDS011;33688;44.354;9.228;2023-02-01T00:53:32;6.38;;;4.15;;
47922;SDS011;33688;44.354;9.228;2023-02-01T00:55:58;6.20;;;4.15;;
47922;SDS011;33688;44.354;9.228;2023-02-01T00:58:25;6.53;;;4.25;;
47922;SDS011;33688;44.354;9.228;2023-02-01T01:01:04;5.93;;;4.45;;
47922;SDS011;33688;44.354;9.228;2023-02-01T01:03:31;6.18;;;3.80;;
47922;SDS011;33688;44.354;9.228;2023-02-01T01:05:58;6.75;;;4.13;;
47922;SDS011;33688;44.354;9.228;2023-02-01T01:08:25;7.97;;;3.65;;
47922;SDS011;33688;44.354;9.228;2023-02-01T01:10:51;6.60;;;3.55;;
47922;SDS011;33688;44.354;9.228;2023-02-01T01:13:16;6.50;;;4.43;;
47922;SDS011;33688;44.354;9.228;2023-02-01T01:15:43;6.60;;;4.43;;
47922;SDS011;33688;44.354;9.228;2023-02-01T01:18:09;6.03;;;3.78;;
47922;SDS011;33688;44.354;9.228;2023-02-01T01:20:35;6.80;;;4.20;;
47922;SDS011;33688;44.354;9.228;2023-02-01T01:23:03;5.03;;;3.78;;
47922;SDS011;33688;44.354;9.228;2023-02-01T01:25:29;6.30;;;4.10;;
47922;SDS011;33688;44.354;9.228;2023-02-01T01:27:54;5.60;;;3.92;;
47922;SDS011;33688;44.354;9.228;2023-02-01T01:30:21;4.95;;;3.95;;
47922;SDS011;33688;44.354;9.228;2023-02-01T01:32:47;7.05;;;4.50;;
47922;SDS011;33688;44.354;9.228;2023-02-01T01:35:13;6.95;;;4.25;;
47922;SDS011;33688;44.354;9.228;2023-02-01T01:37:38;5.72;;;3.80;;
47922;SDS011;33688;44.354;9.228;2023-02-01T01:40:04;6.70;;;4.00;;
47922;SDS011;33688;44.354;9.228;2023-02-01T01:42:36;6.53;;;4.18;;
47922;SDS011;33688;44.354;9.228;2023-02-01T01:47:40;5.95;;;3.80;;
47922;SDS011;33688;44.354;9.228;2023-02-01T01:50:10;5.43;;;3.90;;
47922;SDS011;33688;44.354;9.228;2023-02-01T01:52:38;4.75;;;3.45;;
47922;SDS011;33688;44.354;9.228;2023-02-01T01:55:05;5.90;;;4.20;;
47922;SDS011;33688;44.354;9.228;2023-02-01T01:57:32;6.28;;;3.90;;
47922;SDS011;33688;44.354;9.228;2023-02-01T02:00:01;6.35;;;4.50;;
47922;SDS011;33688;44.354;9.228;2023-02-01T02:02:38;5.43;;;3.38;;
47922;SDS011;33688;44.354;9.228;2023-02-01T02:05:06;5.20;;;4.00;;
47922;SDS011;33688;44.354;9.228;2023-02-01T02:07:34;5.00;;;3.65;;
47922;SDS011;33688;44.354;9.228;2023-02-01T02:10:03;5.28;;;3.97;;
47922;SDS011;33688;44.354;9.228;2023-02-01T02:12:31;8.25;;;4.22;;
47922;SDS011;33688;44.354;9.228;2023-02-01T02:14:57;5.15;;;3.67;;
47922;SDS011;33688;44.354;9.228;2023-02-01T02:17:29;4.30;;;3.25;;
47922;SDS011;33688;44.354;9.228;2023-02-01T02:23:11;5.53;;;3.35;;
47922;SDS011;33688;44.354;9.228;2023-02-01T02:26:09;5.35;;;3.40;;
47922;SDS011;33688;44.354;9.228;2023-02-01T02:45:28;5.28;;;3.85;;
47922;SDS011;33688;44.354;9.228;2023-02-01T02:50:50;5.78;;;4.05;;
47922;SDS011;33688;44.354;9.228;2023-02-01T02:56:32;4.97;;;3.35;;
47922;SDS011;33688;44.354;9.228;2023-02-01T02:59:17;6.00;;;3.30;;
47922;SDS011;33688;44.354;9.228;2023-02-01T03:02:05;4.00;;;3.28;;
47922;SDS011;33688;44.354;9.228;2023-02-01T03:04:53;4.95;;;3.70;;
47922;SDS011;33688;44.354;9.228;2023-02-01T03:07:45;5.05;;;3.63;;
47922;SDS011;33688;44.354;9.228;2023-02-01T03:10:53;4.95;;;3.38;;
47922;SDS011;33688;44.354;9.228;2023-02-01T03:21:34;5.78;;;3.90;;
47922;SDS011;33688;44.354;9.228;2023-02-01T03:24:04;4.10;;;3.60;;
47922;SDS011;33688;44.354;9.228;2023-02-01T03:26:38;4.47;;;3.15;;
47922;SDS011;33688;44.354;9.228;2023-02-01T03:29:08;4.78;;;3.55;;
47922;SDS011;33688;44.354;9.228;2023-02-01T03:31:41;4.70;;;3.00;;
47922;SDS011;33688;44.354;9.228;2023-02-01T03:34:06;4.50;;;3.20;;
47922;SDS011;33688;44.354;9.228;2023-02-01T03:36:47;5.07;;;3.35;;
47922;SDS011;33688;44.354;9.228;2023-02-01T03:39:21;5.25;;;3.90;;
47922;SDS011;33688;44.354;9.228;2023-02-01T03:41:55;5.28;;;4.03;;
47922;SDS011;33688;44.354;9.228;2023-02-01T03:44:30;5.85;;;3.47;;
47922;SDS011;33688;44.354;9.228;2023-02-01T03:46:58;5.85;;;3.35;;
47922;SDS011;33688;44.354;9.228;2023-02-01T03:49:30;5.25;;;3.22;;
47922;SDS011;33688;44.354;9.228;2023-02-01T03:52:03;4.18;;;3.33;;
47922;SDS011;33688;44.354;9.228;2023-02-01T03:54:30;3.75;;;3.25;;
47922;SDS011;33688;44.354;9.228;2023-02-01T03:56:59;4.88;;;3.40;;
47922;SDS011;33688;44.354;9.228;2023-02-01T03:59:26;3.88;;;2.95;;
47922;SDS011;33688;44.354;9.228;2023-02-01T04:01:52;3.95;;;2.85;;
47922;SDS011;33688;44.354;9.228;2023-02-01T04:04:18;6.05;;;3.47;;
47922;SDS011;33688;44.354;9.228;2023-02-01T04:06:49;3.77;;;2.90;;
47922;SDS011;33688;44.354;9.228;2023-02-01T04:09:16;3.80;;;2.90;;
47922;SDS011;33688;44.354;9.228;2023-02-01T04:11:41;3.45;;;2.83;;
47922;SDS011;33688;44.354;9.228;2023-02-01T04:14:09;4.68;;;2.85;;
47922;SDS011;33688;44.354;9.228;2023-02-01T04:16:35;5.75;;;3.30;;
47922;SDS011;33688;44.354;9.228;2023-02-01T04:19:01;6.07;;;3.17;;
47922;SDS011;33688;44.354;9.228;2023-02-01T04:21:27;4.00;;;3.15;;
47922;SDS011;33688;44.354;9.228;2023-02-01T04:23:53;5.15;;;3.55;;
47922;SDS011;33688;44.354;9.228;2023-02-01T04:26:19;4.70;;;3.25;;
47922;SDS011;33688;44.354;9.228;2023-02-01T04:28:46;3.35;;;2.95;;
47922;SDS011;33688;44.354;9.228;2023-02-01T04:31:15;6.55;;;3.80;;
47922;SDS011;33688;44.354;9.228;2023-02-01T04:33:41;4.40;;;3.10;;
47922;SDS011;33688;44.354;9.228;2023-02-01T04:36:07;3.72;;;2.70;;
47922;SDS011;33688;44.354;9.228;2023-02-01T04:38:32;5.60;;;3.25;;
47922;SDS011;33688;44.354;9.228;2023-02-01T04:40:58;3.33;;;2.70;;
47922;SDS011;33688;44.354;9.228;2023-02-01T04:43:24;4.20;;;2.50;;
47922;SDS011;33688;44.354;9.228;2023-02-01T04:45:50;4.63;;;2.80;;
47922;SDS011;33688;44.354;9.228;2023-02-01T04:48:16;5.60;;;2.63;;
47922;SDS011;33688;44.354;9.228;2023-02-01T04:50:43;3.97;;;3.25;;
47922;SDS011;33688;44.354;9.228;2023-02-01T04:53:13;4.28;;;2.80;;
47922;SDS011;33688;44.354;9.228;2023-02-01T04:55:42;3.72;;;2.75;;
47922;SDS011;33688;44.354;9.228;2023-02-01T04:58:08;4.32;;;3.00;;
47922;SDS011;33688;44.354;9.228;2023-02-01T05:00:34;4.97;;;3.20;;
47922;SDS011;33688;44.354;9.228;2023-02-01T05:03:00;3.55;;;2.97;;
47922;SDS011;33688;44.354;9.228;2023-02-01T05:05:27;3.78;;;2.83;;
47922;SDS011;33688;44.354;9.228;2023-02-01T05:07:53;4.88;;;3.17;;
47922;SDS011;33688;44.354;9.228;2023-02-01T05:10:18;4.07;;;3.40;;
47922;SDS011;33688;44.354;9.228;2023-02-01T05:12:44;4.50;;;3.20;;
47922;SDS011;33688;44.354;9.228;2023-02-01T05:15:29;5.85;;;3.20;;
47922;SDS011;33688;44.354;9.228;2023-02-01T05:17:55;5.45;;;3.50;;
47922;SDS011;33688;44.354;9.228;2023-02-01T05:20:21;3.17;;;2.38;;
47922;SDS011;33688;44.354;9.228;2023-02-01T05:22:46;4.10;;;2.95;;
47922;SDS011;33688;44.354;9.228;2023-02-01T05:25:12;3.72;;;2.40;;
47922;SDS011;33688;44.354;9.228;2023-02-01T05:27:38;3.65;;;2.38;;
47922;SDS011;33688;44.354;9.228;2023-02-01T05:30:04;3.95;;;3.25;;
47922;SDS011;33688;44.354;9.228;2023-02-01T05:32:30;3.45;;;2.85;;
47922;SDS011;33688;44.354;9.228;2023-02-01T05:34:56;3.72;;;2.80;;
47922;SDS011;33688;44.354;9.228;2023-02-01T05:37:22;3.65;;;2.55;;
47922;SDS011;33688;44.354;9.228;2023-02-01T05:39:48;5.68;;;2.65;;
47922;SDS011;33688;44.354;9.228;2023-02-01T05:42:13;3.45;;;2.33;;
47922;SDS011;33688;44.354;9.228;2023-02-01T05:44:39;6.72;;;3.65;;
47922;SDS011;33688;44.354;9.228;2023-02-01T05:47:05;4.15;;;3.00;;
47922;SDS011;33688;44.354;9.228;2023-02-01T05:49:31;4.03;;;2.47;;
47922;SDS011;33688;44.354;9.228;2023-02-01T05:51:57;4.32;;;3.05;;
47922;SDS011;33688;44.354;9.228;2023-02-01T05:54:24;3.65;;;2.78;;
47922;SDS011;33688;44.354;9.228;2023-02-01T05:56:49;4.28;;;2.95;;
47922;SDS011;33688;44.354;9.228;2023-02-01T05:59:15;3.10;;;2.42;;
47922;SDS011;33688;44.354;9.228;2023-02-01T06:01:40;4.03;;;2.53;;
47922;SDS011;33688;44.354;9.228;2023-02-01T06:04:06;4.78;;;3.10;;
47922;SDS011;33688;44.354;9.228;2023-02-01T06:06:32;4.35;;;2.80;;
47922;SDS011;33688;44.354;9.228;2023-02-01T06:08:58;3.40;;;2.30;;
47922;SDS011;33688;44.354;9.228;2023-02-01T06:11:24;4.32;;;2.58;;
47922;SDS011;33688;44.354;9.228;2023-02-01T06:13:49;4.90;;;3.55;;
47922;SDS011;33688;44.354;9.228;2023-02-01T06:16:15;4.88;;;2.85;;
47922;SDS011;33688;44.354;9.228;2023-02-01T06:18:40;4.05;;;3.08;;
47922;SDS011;33688;44.354;9.228;2023-02-01T06:21:06;3.90;;;2.92;;
47922;SDS011;33688;44.354;9.228;2023-02-01T06:23:33;4.32;;;3.35;;
47922;SDS011;33688;44.354;9.228;2023-02-01T06:25:59;4.15;;;2.75;;
47922;SDS011;33688;44.354;9.228;2023-02-01T06:28:30;3.42;;;2.88;;
47922;SDS011;33688;44.354;9.228;2023-02-01T06:30:56;3.95;;;2.85;;
47922;SDS011;33688;44.354;9.228;2023-02-01T06:33:24;4.60;;;2.72;;
47922;SDS011;33688;44.354;9.228;2023-02-01T06:35:56;5.15;;;2.75;;
47922;SDS011;33688;44.354;9.228;2023-02-01T06:38:24;3.72;;;2.78;;
47922;SDS011;33688;44.354;9.228;2023-02-01T06:40:54;2.90;;;2.60;;
47922;SDS011;33688;44.354;9.228;2023-02-01T06:43:24;4.28;;;2.17;;
47922;SDS011;33688;44.354;9.228;2023-02-01T06:45:51;4.50;;;2.92;;
47922;SDS011;33688;44.354;9.228;2023-02-01T06:48:17;4.05;;;2.70;;
47922;SDS011;33688;44.354;9.228;2023-02-01T06:50:44;4.10;;;2.95;;
47922;SDS011;33688;44.354;9.228;2023-02-01T06:53:10;4.00;;;2.80;;
47922;SDS011;33688;44.354;9.228;2023-02-01T06:55:35;3.03;;;2.17;;
47922;SDS011;33688;44.354;9.228;2023-02-01T06:58:01;3.65;;;2.60;;
47922;SDS011;33688;44.354;9.228;2023-02-01T07:00:28;3.60;;;2.78;;
47922;SDS011;33688;44.354;9.228;2023-02-01T07:02:54;4.25;;;2.83;;
47922;SDS011;33688;44.354;9.228;2023-02-01T07:05:20;3.70;;;2.45;;
47922;SDS011;33688;44.354;9.228;2023-02-01T07:07:45;4.05;;;2.75;;
47922;SDS011;33688;44.354;9.228;2023-02-01T07:10:11;3.33;;;2.47;;
47922;SDS011;33688;44.354;9.228;2023-02-01T07:12:37;3.63;;;2.58;;
47922;SDS011;33688;44.354;9.228;2023-02-01T07:15:03;2.90;;;2.30;;
47922;SDS011;33688;44.354;9.228;2023-02-01T07:17:29;3.30;;;2.50;;
47922;SDS011;33688;44.354;9.228;2023-02-01T07:19:55;3.97;;;2.33;;
47922;SDS011;33688;44.354;9.228;2023-02-01T07:22:22;4.70;;;2.78;;
47922;SDS011;33688;44.354;9.228;2023-02-01T07:24:48;3.53;;;2.72;;
47922;SDS011;33688;44.354;9.228;2023-02-01T07:27:13;3.55;;;2.83;;
47922;SDS011;33688;44.354;9.228;2023-02-01T07:29:39;4.68;;;2.80;;
47922;SDS011;33688;44.354;9.228;2023-02-01T07:32:05;5.53;;;3.25;;
47922;SDS011;33688;44.354;9.228;2023-02-01T07:34:33;6.32;;;3.28;;
47922;SDS011;33688;44.354;9.228;2023-02-01T07:37:00;6.50;;;3.50;;
47922;SDS011;33688;44.354;9.228;2023-02-01T07:39:25;6.28;;;3.60;;
47922;SDS011;33688;44.354;9.228;2023-02-01T07:41:53;9.23;;;3.60;;
47922;SDS011;33688;44.354;9.228;2023-02-01T07:44:19;7.03;;;3.63;;
47922;SDS011;33688;44.354;9.228;2023-02-01T07:46:48;5.20;;;3.25;;
47922;SDS011;33688;44.354;9.228;2023-02-01T07:49:14;7.60;;;3.95;;
47922;SDS011;33688;44.354;9.228;2023-02-01T07:51:40;8.35;;;3.83;;
47922;SDS011;33688;44.354;9.228;2023-02-01T07:54:05;5.13;;;3.63;;
47922;SDS011;33688;44.354;9.228;2023-02-01T07:56:31;7.13;;;4.13;;
47922;SDS011;33688;44.354;9.228;2023-02-01T07:58:57;8.98;;;3.97;;
47922;SDS011;33688;44.354;9.228;2023-02-01T08:01:25;6.40;;;4.07;;
47922;SDS011;33688;44.354;9.228;2023-02-01T08:03:57;8.60;;;4.13;;
47922;SDS011;33688;44.354;9.228;2023-02-01T08:06:27;9.38;;;4.47;;
47922;SDS011;33688;44.354;9.228;2023-02-01T08:08:56;7.32;;;4.55;;
47922;SDS011;33688;44.354;9.228;2023-02-01T08:11:22;10.07;;;5.00;;
47922;SDS011;33688;44.354;9.228;2023-02-01T08:13:48;11.38;;;5.35;;
47922;SDS011;33688;44.354;9.228;2023-02-01T08:16:15;10.25;;;4.93;;
47922;SDS011;33688;44.354;9.228;2023-02-01T08:18:42;13.15;;;4.70;;
47922;SDS011;33688;44.354;9.228;2023-02-01T08:23:34;10.20;;;4.57;;
47922;SDS011;33688;44.354;9.228;2023-02-01T08:28:42;8.18;;;4.32;;
47922;SDS011;33688;44.354;9.228;2023-02-01T08:31:11;7.28;;;4.45;;
47922;SDS011;33688;44.354;9.228;2023-02-01T08:33:40;8.95;;;4.28;;
47922;SDS011;33688;44.354;9.228;2023-02-01T08:36:07;10.98;;;4.72;;
47922;SDS011;33688;44.354;9.228;2023-02-01T08:38:37;11.13;;;4.55;;
47922;SDS011;33688;44.354;9.228;2023-02-01T08:41:08;10.45;;;4.15;;
47922;SDS011;33688;44.354;9.228;2023-02-01T08:43:38;8.40;;;4.13;;
47922;SDS011;33688;44.354;9.228;2023-02-01T08:46:04;9.43;;;4.45;;
47922;SDS011;33688;44.354;9.228;2023-02-01T08:48:30;8.55;;;4.32;;
47922;SDS011;33688;44.354;9.228;2023-02-01T08:51:00;10.77;;;5.00;;
47922;SDS011;33688;44.354;9.228;2023-02-01T08:53:27;7.45;;;4.38;;
47922;SDS011;33688;44.354;9.228;2023-02-01T08:55:53;10.25;;;4.88;;
47922;SDS011;33688;44.354;9.228;2023-02-01T08:58:18;7.93;;;3.90;;
47922;SDS011;33688;44.354;9.228;2023-02-01T09:00:44;9.93;;;4.57;;
47922;SDS011;33688;44.354;9.228;2023-02-01T09:03:11;8.82;;;4.22;;
47922;SDS011;33688;44.354;9.228;2023-02-01T09:05:37;9.73;;;4.40;;
47922;SDS011;33688;44.354;9.228;2023-02-01T09:08:03;8.95;;;4.45;;
47922;SDS011;33688;44.354;9.228;2023-02-01T09:10:29;7.85;;;4.40;;
47922;SDS011;33688;44.354;9.228;2023-02-01T09:12:55;7.20;;;3.90;;
47922;SDS011;33688;44.354;9.228;2023-02-01T09:15:21;7.22;;;3.70;;
47922;SDS011;33688;44.354;9.228;2023-02-01T09:17:46;5.57;;;3.70;;
47922;SDS011;33688;44.354;9.228;2023-02-01T09:20:12;9.88;;;4.35;;
47922;SDS011;33688;44.354;9.228;2023-02-01T09:22:38;9.30;;;3.95;;
47922;SDS011;33688;44.354;9.228;2023-02-01T09:25:04;8.82;;;4.18;;
47922;SDS011;33688;44.354;9.228;2023-02-01T09:27:30;6.95;;;4.55;;
47922;SDS011;33688;44.354;9.228;2023-02-01T09:29:55;10.05;;;4.45;;
47922;SDS011;33688;44.354;9.228;2023-02-01T09:32:21;7.07;;;4.57;;
47922;SDS011;33688;44.354;9.228;2023-02-01T09:34:48;11.02;;;4.35;;
47922;SDS011;33688;44.354;9.228;2023-02-01T09:37:15;10.30;;;4.13;;
47922;SDS011;33688;44.354;9.228;2023-02-01T09:39:41;8.75;;;4.25;;
47922;SDS011;33688;44.354;9.228;2023-02-01T09:42:14;9.02;;;3.85;;
47922;SDS011;33688;44.354;9.228;2023-02-01T09:47:32;9.32;;;4.45;;
47922;SDS011;33688;44.354;9.228;2023-02-01T09:50:19;9.95;;;4.32;;
47922;SDS011;33688;44.354;9.228;2023-02-01T09:52:55;14.02;;;4.20;;
47922;SDS011;33688;44.354;9.228;2023-02-01T09:55:28;7.40;;;3.65;;
47922;SDS011;33688;44.354;9.228;2023-02-01T09:57:59;8.65;;;4.05;;
47922;SDS011;33688;44.354;9.228;2023-02-01T10:00:33;9.20;;;4.60;;
47922;SDS011;33688;44.354;9.228;2023-02-01T10:03:00;9.02;;;4.90;;
47922;SDS011;33688;44.354;9.228;2023-02-01T10:08:13;9.45;;;4.35;;
47922;SDS011;33688;44.354;9.228;2023-02-01T10:17:26;16.02;;;3.67;;
47922;SDS011;33688;44.354;9.228;2023-02-01T10:20:12;10.77;;;4.28;;
47922;SDS011;33688;44.354;9.228;2023-02-01T10:22:46;8.80;;;3.75;;
47922;SDS011;33688;44.354;9.228;2023-02-01T10:27:48;7.07;;;3.87;;
47922;SDS011;33688;44.354;9.228;2023-02-01T10:30:16;4.68;;;3.03;;
47922;SDS011;33688;44.354;9.228;2023-02-01T10:32:44;11.32;;;3.83;;
47922;SDS011;33688;44.354;9.228;2023-02-01T10:37:39;8.60;;;3.97;;
47922;SDS011;33688;44.354;9.228;2023-02-01T10:42:35;4.72;;;2.50;;
47922;SDS011;33688;44.354;9.228;2023-02-01T10:45:02;10.15;;;3.28;;
47922;SDS011;33688;44.354;9.228;2023-02-01T10:47:29;10.75;;;3.50;;
47922;SDS011;33688;44.354;9.228;2023-02-01T10:50:09;8.10;;;3.03;;
47922;SDS011;33688;44.354;9.228;2023-02-01T10:52:45;9.10;;;3.83;;
47922;SDS011;33688;44.354;9.228;2023-02-01T10:55:26;10.13;;;3.60;;
47922;SDS011;33688;44.354;9.228;2023-02-01T10:57:56;6.72;;;3.05;;
47922;SDS011;33688;44.354;9.228;2023-02-01T11:00:22;7.55;;;3.35;;
47922;SDS011;33688;44.354;9.228;2023-02-01T11:02:48;7.15;;;2.88;;
47922;SDS011;33688;44.354;9.228;2023-02-01T11:05:15;7.25;;;3.85;;
47922;SDS011;33688;44.354;9.228;2023-02-01T11:07:46;5.70;;;3.33;;
47922;SDS011;33688;44.354;9.228;2023-02-01T11:13:01;7.65;;;3.20;;
47922;SDS011;33688;44.354;9.228;2023-02-01T11:15:29;4.40;;;2.90;;
47922;SDS011;33688;44.354;9.228;2023-02-01T11:17:54;4.72;;;2.95;;
47922;SDS011;33688;44.354;9.228;2023-02-01T11:23:11;4.57;;;2.85;;
47922;SDS011;33688;44.354;9.228;2023-02-01T11:25:46;4.75;;;2.97;;
47922;SDS011;33688;44.354;9.228;2023-02-01T11:28:13;4.80;;;2.80;;
47922;SDS011;33688;44.354;9.228;2023-02-01T11:30:40;7.95;;;3.15;;
47922;SDS011;33688;44.354;9.228;2023-02-01T11:33:12;5.28;;;2.55;;
47922;SDS011;33688;44.354;9.228;2023-02-01T11:35:41;6.07;;;3.28;;
47922;SDS011;33688;44.354;9.228;2023-02-01T11:38:11;7.65;;;3.33;;
47922;SDS011;33688;44.354;9.228;2023-02-01T11:40:44;7.80;;;3.72;;
47922;SDS011;33688;44.354;9.228;2023-02-01T11:43:13;6.32;;;2.88;;
47922;SDS011;33688;44.354;9.228;2023-02-01T11:45:53;6.28;;;2.70;;
47922;SDS011;33688;44.354;9.228;2023-02-01T11:54:05;5.63;;;3.47;;
47922;SDS011;33688;44.354;9.228;2023-02-01T12:07:51;3.92;;;2.85;;
47922;SDS011;33688;44.354;9.228;2023-02-01T12:16:31;5.55;;;2.90;;
47922;SDS011;33688;44.354;9.228;2023-02-01T12:19:50;5.78;;;2.83;;
47922;SDS011;33688;44.354;9.228;2023-02-01T12:21:57;4.15;;;2.47;;
47922;SDS011;33688;44.354;9.228;2023-02-01T12:29:42;3.65;;;2.35;;
47922;SDS011;33688;44.354;9.228;2023-02-01T12:43:57;3.78;;;2.70;;
47922;SDS011;33688;44.354;9.228;2023-02-01T12:46:31;3.08;;;2.35;;
47922;SDS011;33688;44.354;9.228;2023-02-01T12:49:14;6.07;;;2.78;;
47922;SDS011;33688;44.354;9.228;2023-02-01T12:51:43;7.07;;;3.55;;
47922;SDS011;33688;44.354;9.228;2023-02-01T12:56:48;3.67;;;2.20;;
47922;SDS011;33688;44.354;9.228;2023-02-01T13:02:25;4.18;;;2.53;;
47922;SDS011;33688;44.354;9.228;2023-02-01T13:07:45;4.65;;;2.58;;
47922;SDS011;33688;44.354;9.228;2023-02-01T13:10:16;3.13;;;2.05;;
47922;SDS011;33688;44.354;9.228;2023-02-01T13:13:00;4.80;;;2.57;;
47922;SDS011;33688;44.354;9.228;2023-02-01T13:16:28;2.92;;;2.53;;
47922;SDS011;33688;44.354;9.228;2023-02-01T13:18:34;4.80;;;2.60;;
47922;SDS011;33688;44.354;9.228;2023-02-01T13:21:03;7.25;;;2.75;;
47922;SDS011;33688;44.354;9.228;2023-02-01T13:23:37;5.32;;;2.63;;
47922;SDS011;33688;44.354;9.228;2023-02-01T13:26:04;3.63;;;2.38;;
47922;SDS011;33688;44.354;9.228;2023-02-01T13:31:47;3.33;;;2.17;;
47922;SDS011;33688;44.354;9.228;2023-02-01T13:39:45;3.58;;;2.00;;
47922;SDS011;33688;44.354;9.228;2023-02-01T13:49:50;3.83;;;2.38;;
47922;SDS011;33688;44.354;9.228;2023-02-01T13:55:14;3.78;;;2.38;;
47922;SDS011;33688;44.354;9.228;2023-02-01T13:57:45;3.78;;;2.60;;
47922;SDS011;33688;44.354;9.228;2023-02-01T14:13:32;7.20;;;1.92;;
47922;SDS011;33688;44.354;9.228;2023-02-01T14:24:00;5.82;;;2.65;;
47922;SDS011;33688;44.354;9.228;2023-02-01T14:26:28;2.83;;;1.95;;
47922;SDS011;33688;44.354;9.228;2023-02-01T14:34:21;4.63;;;1.98;;
47922;SDS011;33688;44.354;9.228;2023-02-01T14:36:58;4.90;;;2.17;;
47922;SDS011;33688;44.354;9.228;2023-02-01T14:39:30;7.95;;;2.03;;
47922;SDS011;33688;44.354;9.228;2023-02-01T14:42:15;4.57;;;2.55;;
47922;SDS011;33688;44.354;9.228;2023-02-01T14:44:51;3.13;;;1.98;;
47922;SDS011;33688;44.354;9.228;2023-02-01T14:49:53;4.13;;;2.45;;
47922;SDS011;33688;44.354;9.228;2023-02-01T14:52:49;4.90;;;2.38;;
47922;SDS011;33688;44.354;9.228;2023-02-01T14:55:21;3.67;;;1.80;;
47922;SDS011;33688;44.354;9.228;2023-02-01T14:57:52;2.60;;;1.88;;
47922;SDS011;33688;44.354;9.228;2023-02-01T15:00:26;2.85;;;2.08;;
47922;SDS011;33688;44.354;9.228;2023-02-01T15:02:54;3.80;;;1.77;;
47922;SDS011;33688;44.354;9.228;2023-02-01T15:05:28;2.92;;;2.05;;
47922;SDS011;33688;44.354;9.228;2023-02-01T15:07:58;4.93;;;1.90;;
47922;SDS011;33688;44.354;9.228;2023-02-01T15:10:30;2.67;;;1.60;;
47922;SDS011;33688;44.354;9.228;2023-02-01T15:12:56;2.30;;;1.52;;
47922;SDS011;33688;44.354;9.228;2023-02-01T15:15:23;3.20;;;1.83;;
47922;SDS011;33688;44.354;9.228;2023-02-01T15:17:58;3.53;;;2.15;;
47922;SDS011;33688;44.354;9.228;2023-02-01T15:20:31;3.05;;;2.10;;
47922;SDS011;33688;44.354;9.228;2023-02-01T15:23:01;3.63;;;2.38;;
47922;SDS011;33688;44.354;9.228;2023-02-01T15:25:30;2.53;;;1.70;;
47922;SDS011;33688;44.354;9.228;2023-02-01T15:27:57;3.45;;;2.05;;
47922;SDS011;33688;44.354;9.228;2023-02-01T15:30:24;3.38;;;2.47;;
47922;SDS011;33688;44.354;9.228;2023-02-01T15:32:52;3.47;;;2.20;;
47922;SDS011;33688;44.354;9.228;2023-02-01T15:36:16;2.88;;;1.85;;
47922;SDS011;33688;44.354;9.228;2023-02-01T15:41:13;4.03;;;2.00;;
47922;SDS011;33688;44.354;9.228;2023-02-01T15:43:41;4.78;;;2.38;;
47922;SDS011;33688;44.354;9.228;2023-02-01T15:46:13;2.22;;;1.60;;
47922;SDS011;33688;44.354;9.228;2023-02-01T15:48:49;5.40;;;1.80;;
47922;SDS011;33688;44.354;9.228;2023-02-01T15:51:21;4.75;;;1.55;;
47922;SDS011;33688;44.354;9.228;2023-02-01T15:53:53;3.30;;;2.20;;
47922;SDS011;33688;44.354;9.228;2023-02-01T15:56:23;3.20;;;2.28;;
47922;SDS011;33688;44.354;9.228;2023-02-01T15:58:53;2.70;;;1.67;;
47922;SDS011;33688;44.354;9.228;2023-02-01T16:01:21;10.05;;;2.15;;
47922;SDS011;33688;44.354;9.228;2023-02-01T16:03:47;2.80;;;1.67;;
47922;SDS011;33688;44.354;9.228;2023-02-01T16:08:49;5.85;;;1.90;;
47922;SDS011;33688;44.354;9.228;2023-02-01T16:11:22;2.25;;;1.50;;
47922;SDS011;33688;44.354;9.228;2023-02-01T16:13:50;2.90;;;2.00;;
47922;SDS011;33688;44.354;9.228;2023-02-01T16:16:16;7.88;;;1.90;;
47922;SDS011;33688;44.354;9.228;2023-02-01T16:18:42;5.32;;;1.73;;
47922;SDS011;33688;44.354;9.228;2023-02-01T16:21:09;6.85;;;2.03;;
47922;SDS011;33688;44.354;9.228;2023-02-01T16:23:35;9.40;;;1.98;;
47922;SDS011;33688;44.354;9.228;2023-02-01T16:26:02;3.35;;;1.92;;
47922;SDS011;33688;44.354;9.228;2023-02-01T16:28:28;4.28;;;1.48;;
47922;SDS011;33688;44.354;9.228;2023-02-01T16:30:53;5.50;;;1.77;;
47922;SDS011;33688;44.354;9.228;2023-02-01T16:33:20;2.50;;;1.83;;
47922;SDS011;33688;44.354;9.228;2023-02-01T16:35:47;3.75;;;1.95;;
47922;SDS011;33688;44.354;9.228;2023-02-01T16:38:14;2.10;;;1.50;;
47922;SDS011;33688;44.354;9.228;2023-02-01T16:40:44;3.30;;;1.80;;
47922;SDS011;33688;44.354;9.228;2023-02-01T16:43:15;3.50;;;1.55;;
47922;SDS011;33688;44.354;9.228;2023-02-01T16:45:42;2.83;;;1.60;;
47922;SDS011;33688;44.354;9.228;2023-02-01T16:48:20;4.60;;;2.05;;
47922;SDS011;33688;44.354;9.228;2023-02-01T16:50:50;3.53;;;1.92;;
47922;SDS011;33688;44.354;9.228;2023-02-01T16:53:18;3.25;;;1.75;;
47922;SDS011;33688;44.354;9.228;2023-02-01T16:55:43;2.60;;;1.80;;
47922;SDS011;33688;44.354;9.228;2023-02-01T16:58:11;3.40;;;2.17;;
47922;SDS011;33688;44.354;9.228;2023-02-01T17:00:37;2.70;;;1.75;;
47922;SDS011;33688;44.354;9.228;2023-02-01T17:03:03;4.93;;;2.22;;
47922;SDS011;33688;44.354;9.228;2023-02-01T17:05:31;4.75;;;1.73;;
47922;SDS011;33688;44.354;9.228;2023-02-01T17:07:58;4.28;;;1.55;;
47922;SDS011;33688;44.354;9.228;2023-02-01T17:10:28;2.58;;;1.60;;
47922;SDS011;33688;44.354;9.228;2023-02-01T17:12:54;4.78;;;1.88;;
47922;SDS011;33688;44.354;9.228;2023-02-01T17:15:20;3.25;;;1.67;;
47922;SDS011;33688;44.354;9.228;2023-02-01T17:17:45;3.72;;;1.60;;
47922;SDS011;33688;44.354;9.228;2023-02-01T17:20:17;6.53;;;1.70;;
47922;SDS011;33688;44.354;9.228;2023-02-01T17:22:44;3.80;;;1.80;;
47922;SDS011;33688;44.354;9.228;2023-02-01T17:25:14;4.82;;;1.83;;
47922;SDS011;33688;44.354;9.228;2023-02-01T17:27:41;2.45;;;1.52;;
47922;SDS011;33688;44.354;9.228;2023-02-01T17:30:06;3.60;;;1.50;;
47922;SDS011;33688;44.354;9.228;2023-02-01T17:32:35;3.05;;;1.60;;
47922;SDS011;33688;44.354;9.228;2023-02-01T17:35:00;4.00;;;1.90;;
47922;SDS011;33688;44.354;9.228;2023-02-01T17:37:28;5.32;;;2.00;;
47922;SDS011;33688;44.354;9.228;2023-02-01T17:39:55;2.88;;;1.85;;
47922;SDS011;33688;44.354;9.228;2023-02-01T17:42:21;3.15;;;1.52;;
47922;SDS011;33688;44.354;9.228;2023-02-01T17:44:48;4.75;;;1.70;;
47922;SDS011;33688;44.354;9.228;2023-02-01T17:47:14;7.80;;;1.77;;
47922;SDS011;33688;44.354;9.228;2023-02-01T17:49:40;5.93;;;2.08;;